Time;durP1;ratioP1;P1;durP2;ratioP2;P2;SDS_P1;SDS_P2;PMS_P1;PMS_P2;Temp;Humidity;BMP_temperature;BMP_pressure;BME280_temperature;BME280_humidity;BME280_pressure;Samples;Min_cycle;Max_cycle;Signal;HPM_P1;HPM_P2
2021/10/10 00:00:59;;;;;;;80.32;42.70;;;;;;;2.20;68.80;102060.44;1741927;82;25688;-52
2021/10/10 00:03:25;;;;;;;85.77;46.13;;;;;;;2.19;68.62;102060.64;1741916;82;27344;-53
2021/10/10 00:05:52;;;;;;;88.37;46.23;;;;;;;2.19;69.00;102053.44;1741797;82;25670;-50
2021/10/10 00:08:19;;;;;;;90.83;46.98;;;;;;;2.18;68.87;102055.83;1741885;82;25523;-52
2021/10/10 00:10:46;;;;;;;92.55;49.63;;;;;;;2.16;69.04;102052.55;1741757;81;25649;-52
2021/10/10 00:13:15;;;;;;;90.45;49.23;;;;;;;2.16;69.28;102057.05;1741875;82;25490;-51
2021/10/10 00:15:43;;;;;;;99.23;49.87;;;;;;;2.13;69.11;102052.97;1742119;82;28124;-53
2021/10/10 00:18:13;;;;;;;87.97;46.05;;;;;;;2.12;69.05;102053.17;1741786;82;25627;-53
2021/10/10 00:20:43;;;;;;;89.72;45.95;;;;;;;2.07;68.56;102048.98;1741875;82;25519;-50
2021/10/10 00:23:10;;;;;;;85.12;45.30;;;;;;;2.07;68.98;102051.13;1741839;82;25711;-52
2021/10/10 00:25:36;;;;;;;79.62;42.93;;;;;;;2.06;69.00;102049.50;1741903;82;25762;-52
2021/10/10 00:28:04;;;;;;;77.58;41.55;;;;;;;2.03;68.83;102053.91;1741868;82;28107;-53
2021/10/10 00:30:31;;;;;;;77.85;41.63;;;;;;;1.98;68.92;102051.86;1741763;82;25700;-53
2021/10/10 00:32:58;;;;;;;81.15;42.45;;;;;;;1.97;68.92;102052.88;1741881;81;25510;-53
2021/10/10 00:35:25;;;;;;;85.40;45.35;;;;;;;1.97;68.99;102046.73;1741854;81;26372;-54
2021/10/10 00:37:51;;;;;;;86.08;46.00;;;;;;;1.95;68.86;102050.94;1741968;82;25606;-53
2021/10/10 00:40:18;;;;;;;79.87;43.35;;;;;;;1.91;68.93;102048.88;1741952;82;27379;-53
2021/10/10 00:42:45;;;;;;;82.88;44.55;;;;;;;1.86;68.85;102051.67;1741904;82;25455;-51
2021/10/10 00:45:12;;;;;;;87.75;47.05;;;;;;;1.81;68.65;102054.14;1741873;81;25555;-52
2021/10/10 00:47:40;;;;;;;80.45;43.45;;;;;;;1.80;68.76;102053.02;1741869;81;25608;-50
2021/10/10 00:50:09;;;;;;;84.30;43.98;;;;;;;1.77;68.93;102048.92;1737645;81;25705;-54
2021/10/10 00:52:45;;;;;;;74.05;40.48;;;;;;;1.74;68.97;102048.00;1742022;82;27320;-50
2021/10/10 00:55:13;;;;;;;71.95;39.70;;;;;;;1.71;68.95;102045.73;1741923;81;25574;-50
2021/10/10 00:57:46;;;;;;;78.65;40.75;;;;;;;1.70;69.15;102048.09;1737422;82;25492;-50
2021/10/10 01:00:16;;;;;;;74.00;40.55;;;;;;;1.67;68.68;102046.66;1741968;82;25745;-50
2021/10/10 01:02:44;;;;;;;74.40;40.83;;;;;;;1.66;68.66;102045.53;1742043;82;25475;-51
2021/10/10 01:05:13;;;;;;;70.00;39.45;;;;;;;1.63;68.76;102041.42;1742010;81;27400;-51
2021/10/10 01:07:40;;;;;;;75.57;40.80;;;;;;;1.61;68.55;102039.48;1741934;81;25777;-53
2021/10/10 01:10:11;;;;;;;79.77;39.18;;;;;;;1.57;68.18;102039.59;1741958;82;25475;-52
2021/10/10 01:12:40;;;;;;;76.00;41.10;;;;;;;1.54;68.41;102035.19;1741999;82;25621;-55
2021/10/10 01:15:09;;;;;;;72.37;40.55;;;;;;;1.52;68.40;102035.91;1742272;82;25698;-52
2021/10/10 01:17:39;;;;;;;72.05;40.15;;;;;;;1.51;68.85;102037.73;1742127;82;27322;-52
2021/10/10 01:20:10;;;;;;;76.20;39.48;;;;;;;1.47;69.00;102030.66;1742028;82;25698;-52
2021/10/10 01:22:37;;;;;;;76.67;39.27;;;;;;;1.42;68.93;102022.98;1742005;82;25632;-51
2021/10/10 01:25:05;;;;;;;70.42;40.25;;;;;;;1.41;69.01;102032.80;1741941;82;25608;-52
2021/10/10 01:27:32;;;;;;;72.32;39.35;;;;;;;1.40;69.26;102028.52;1742005;82;25728;-52
2021/10/10 01:29:59;;;;;;;73.78;39.20;;;;;;;1.36;69.25;102025.12;1741936;82;27327;-51
2021/10/10 01:32:25;;;;;;;72.30;38.35;;;;;;;1.32;69.12;102021.23;1741839;82;25590;-51
2021/10/10 01:34:52;;;;;;;71.12;38.40;;;;;;;1.26;68.95;102023.70;1741947;81;25628;-51
2021/10/10 01:37:19;;;;;;;67.22;37.13;;;;;;;1.20;69.08;102019.69;1741933;82;26447;-51
2021/10/10 01:39:45;;;;;;;67.95;36.77;;;;;;;1.16;69.12;102014.44;1741991;82;25430;-52
2021/10/10 01:42:12;;;;;;;68.42;37.38;;;;;;;1.13;69.22;102018.87;1741978;82;27262;-51
2021/10/10 01:44:39;;;;;;;67.20;37.17;;;;;;;1.09;69.37;102018.42;1741839;82;25594;-54
2021/10/10 01:47:06;;;;;;;72.08;38.20;;;;;;;1.07;69.33;102020.48;1741980;82;25630;-52
2021/10/10 01:49:38;;;;;;;69.10;39.48;;;;;;;1.00;69.48;102012.99;1741851;81;25617;-54
2021/10/10 01:52:06;;;;;;;74.00;38.90;;;;;;;1.01;69.74;102014.13;1741579;82;25526;-52
2021/10/10 01:54:34;;;;;;;79.90;39.55;;;;;;;0.98;69.62;102009.72;1741944;82;27320;-50
2021/10/10 01:57:00;;;;;;;73.30;38.02;;;;;;;0.97;69.82;102015.56;1741858;82;25673;-51
2021/10/10 01:59:30;;;;;;;74.97;40.15;;;;;;;0.98;70.03;102008.39;1742035;82;25598;-54
2021/10/10 02:01:57;;;;;;;;;;;;;;;0.95;69.96;102011.45;1744516;82;26306;-54
2021/10/10 02:04:24;;;;;;;68.90;36.17;;;;;;;0.93;69.92;102014.31;1742059;82;25686;-51
2021/10/10 02:06:50;;;;;;;67.90;37.10;;;;;;;0.88;69.80;102014.91;1742043;82;27499;-52
2021/10/10 02:09:17;;;;;;;68.80;36.65;;;;;;;0.86;69.99;102012.16;1741841;82;25912;-51
2021/10/10 02:11:43;;;;;;;68.70;36.50;;;;;;;0.85;70.24;102012.67;1741890;82;25665;-52
2021/10/10 02:14:12;;;;;;;72.80;37.85;;;;;;;0.86;70.25;102009.48;1741921;81;26356;-52
2021/10/10 02:16:39;;;;;;;73.57;37.85;;;;;;;0.85;70.30;102010.50;1741959;82;25658;-54
2021/10/10 02:19:06;;;;;;;67.22;36.38;;;;;;;0.84;70.29;102014.20;1741946;82;27517;-51
2021/10/10 02:21:32;;;;;;;69.30;36.05;;;;;;;0.81;70.45;102010.08;1741828;82;25456;-53
2021/10/10 02:23:59;;;;;;;68.95;35.48;;;;;;;0.79;70.48;102007.33;1741946;82;25693;-50
2021/10/10 02:26:26;;;;;;;64.77;35.33;;;;;;;0.77;70.62;102007.53;1741905;82;25620;-53
2021/10/10 02:28:53;;;;;;;72.82;37.80;;;;;;;0.74;70.46;102004.73;1741898;82;25673;-50
2021/10/10 02:31:19;;;;;;;61.00;35.80;;;;;;;0.75;70.55;102013.57;1741880;82;27340;-52
2021/10/10 02:33:46;;;;;;;69.10;38.38;;;;;;;0.77;70.18;102005.35;1741812;82;25612;-53
2021/10/10 02:36:12;;;;;;;64.75;35.00;;;;;;;0.78;70.38;102007.01;1741930;82;25450;-55
2021/10/10 02:38:39;;;;;;;61.83;36.23;;;;;;;0.80;70.41;102008.46;1741859;82;25669;-50
2021/10/10 02:41:06;;;;;;;70.72;37.65;;;;;;;0.80;70.43;102007.62;1741944;82;25728;-52
2021/10/10 02:43:32;;;;;;;68.28;36.15;;;;;;;0.77;70.41;102001.36;1741998;82;28190;-52
2021/10/10 02:45:59;;;;;;;63.15;34.35;;;;;;;0.76;70.37;102003.73;1741949;82;25696;-52
2021/10/10 02:48:25;;;;;;;67.40;35.17;;;;;;;0.74;70.43;102000.74;1741791;81;25607;-58
2021/10/10 02:50:52;;;;;;;62.20;34.30;;;;;;;0.74;70.43;102007.41;1741991;82;25625;-52
2021/10/10 02:53:19;;;;;;;61.63;34.60;;;;;;;0.72;70.45;102000.13;1741947;82;25688;-52
2021/10/10 02:55:46;;;;;;;58.83;33.02;;;;;;;0.69;70.41;102004.52;1741932;82;27960;-53
2021/10/10 02:58:12;;;;;;;61.77;32.73;;;;;;;0.67;70.38;102002.58;1741816;82;25462;-51
2021/10/10 03:00:41;;;;;;;60.85;32.73;;;;;;;0.67;70.40;102004.42;1741906;81;25688;-51
2021/10/10 03:03:08;;;;;;;59.80;34.35;;;;;;;0.67;70.49;102000.44;1741997;81;26355;-51
2021/10/10 03:05:34;;;;;;;59.08;32.42;;;;;;;0.66;70.48;101996.11;1742030;82;25627;-51
2021/10/10 03:08:01;;;;;;;58.75;31.75;;;;;;;0.63;70.38;101995.18;1742004;82;27492;-50
2021/10/10 03:10:28;;;;;;;58.10;31.75;;;;;;;0.61;70.38;101991.91;1741811;82;25677;-52
2021/10/10 03:12:54;;;;;;;59.20;32.35;;;;;;;0.57;70.22;101991.48;1741873;82;25664;-51
2021/10/10 03:15:21;;;;;;;62.08;32.67;;;;;;;0.55;70.37;101986.88;1741869;81;25625;-51
2021/10/10 03:17:48;;;;;;;55.75;31.37;;;;;;;0.51;70.36;101982.95;1741941;82;25644;-54
2021/10/10 03:20:14;;;;;;;56.28;31.27;;;;;;;0.47;70.37;101986.53;1741869;82;27326;-54
2021/10/10 03:22:41;;;;;;;57.93;31.30;;;;;;;0.44;70.55;101988.25;1741799;82;25605;-54
2021/10/10 03:25:09;;;;;;;57.08;31.70;;;;;;;0.41;70.61;101986.50;1741906;82;25441;-53
2021/10/10 03:27:35;;;;;;;55.95;31.10;;;;;;;0.39;70.48;101984.04;1741853;82;25647;-54
2021/10/10 03:30:03;;;;;;;56.42;31.73;;;;;;;0.39;70.45;101979.23;1741966;82;25445;-53
2021/10/10 03:32:30;;;;;;;66.75;32.45;;;;;;;0.38;70.82;101977.61;1741865;82;27327;-54
2021/10/10 03:34:56;;;;;;;58.00;32.93;;;;;;;0.38;70.95;101979.75;1741877;82;25512;-52
2021/10/10 03:37:24;;;;;;;56.90;31.68;;;;;;;0.35;70.96;101978.30;1741902;82;25523;-50
2021/10/10 03:39:50;;;;;;;59.98;31.00;;;;;;;0.36;71.02;101975.14;1741840;82;25702;-52
2021/10/10 03:42:17;;;;;;;58.78;33.78;;;;;;;0.36;70.95;101975.14;1741894;82;25429;-52
2021/10/10 03:44:45;;;;;;;57.50;33.63;;;;;;;0.33;70.83;101972.87;1741954;82;27424;-53
2021/10/10 03:47:15;;;;;;;66.28;37.33;;;;;;;0.33;71.10;101969.70;1741805;81;25644;-54
2021/10/10 03:49:42;;;;;;;79.30;47.17;;;;;;;0.34;70.91;101969.17;1748152;81;25507;-52
2021/10/10 03:52:09;;;;;;;77.12;47.27;;;;;;;0.34;70.91;101966.52;1751920;81;25605;-53
2021/10/10 03:57:23;;;;;;;82.80;45.55;;;;;;;0.34;71.15;101962.03;1751976;81;27316;-54
2021/10/10 04:00:13;;;;;;;72.00;42.23;;;;;;;0.35;71.16;101958.85;1751860;81;25597;-51
2021/10/10 04:02:18;;;;;;;73.52;43.75;;;;;;;0.33;71.16;101957.72;1741458;81;25674;-54
2021/10/10 04:04:45;;;;;;;68.90;38.83;;;;;;;0.32;71.01;101952.09;1752040;81;25617;-54
2021/10/10 04:07:11;;;;;;;68.52;38.00;;;;;;;0.34;71.10;101951.87;1752029;81;25605;-51
2021/10/10 04:09:38;;;;;;;71.82;38.95;;;;;;;0.34;71.23;101953.20;1751968;81;27330;-53
2021/10/10 04:12:05;;;;;;;70.97;36.98;;;;;;;0.33;71.17;101954.24;1751931;81;25672;-53
2021/10/10 04:14:32;;;;;;;88.00;47.48;;;;;;;0.33;71.32;101948.92;1752146;81;25486;-53
2021/10/10 04:16:58;;;;;;;96.67;52.65;;;;;;;0.33;71.27;101956.38;1752063;81;25612;-51
2021/10/10 04:19:25;;;;;;;91.08;51.92;;;;;;;0.32;71.13;101955.25;1752107;81;25451;-54
2021/10/10 04:21:52;;;;;;;87.92;47.17;;;;;;;0.26;71.14;101951.55;1752106;81;27325;-51
2021/10/10 04:24:18;;;;;;;81.50;43.10;;;;;;;0.31;71.28;101953.11;1752063;81;25511;-51
2021/10/10 04:26:45;;;;;;;67.62;35.92;;;;;;;0.33;71.41;101951.06;1752092;81;25566;-53
2021/10/10 04:29:12;;;;;;;86.53;43.02;;;;;;;0.31;71.41;101955.77;1752099;81;25631;-51
2021/10/10 04:31:38;;;;;;;79.53;44.33;;;;;;;0.30;71.51;101953.30;1752122;81;25503;-54
2021/10/10 04:34:05;;;;;;;77.87;41.77;;;;;;;0.30;71.50;101955.45;1752086;81;27327;-51
2021/10/10 04:36:31;;;;;;;62.70;35.75;;;;;;;0.29;71.26;101955.64;1752042;81;25654;-54
2021/10/10 04:38:58;;;;;;;64.70;35.92;;;;;;;0.28;71.16;101944.19;1752179;81;25702;-51
2021/10/10 04:41:25;;;;;;;70.03;35.40;;;;;;;0.27;71.06;101951.03;1752080;81;26097;-54
2021/10/10 04:43:52;;;;;;;66.72;36.33;;;;;;;0.23;71.08;101947.95;1752151;81;25539;-54
2021/10/10 04:46:18;;;;;;;62.30;33.55;;;;;;;0.21;71.19;101952.66;1752112;81;27335;-53
2021/10/10 04:48:45;;;;;;;69.37;35.88;;;;;;;0.16;71.28;101948.45;1751951;81;25687;-54
2021/10/10 04:51:11;;;;;;;67.22;36.17;;;;;;;0.16;71.62;101949.78;1752196;81;25444;-54
2021/10/10 04:53:39;;;;;;;61.80;35.75;;;;;;;0.16;71.49;101951.11;1752086;81;25684;-55
2021/10/10 04:56:06;;;;;;;57.73;35.13;;;;;;;0.16;71.77;101952.44;1752111;81;25412;-54
2021/10/10 04:58:33;;;;;;;67.85;38.38;;;;;;;0.16;71.87;101949.26;1752186;81;27348;-54
2021/10/10 05:01:00;;;;;;;73.47;38.28;;;;;;;0.18;71.72;101951.20;1752023;81;25473;-54
2021/10/10 05:03:27;;;;;;;77.15;39.75;;;;;;;0.19;71.64;101950.72;1752108;81;25516;-54
2021/10/10 05:05:53;;;;;;;72.47;38.40;;;;;;;0.19;71.80;101949.39;1752067;81;25696;-53
2021/10/10 05:08:20;;;;;;;71.57;38.00;;;;;;;0.20;71.76;101947.02;1752145;81;25622;-53
2021/10/10 05:10:47;;;;;;;61.33;34.78;;;;;;;0.21;71.91;101948.67;1752065;81;27997;-51
2021/10/10 05:13:13;;;;;;;57.80;31.33;;;;;;;0.21;71.94;101950.00;1751933;81;25644;-52
2021/10/10 05:15:40;;;;;;;56.70;31.15;;;;;;;0.21;71.70;101947.34;1752176;81;25708;-55
2021/10/10 05:18:06;;;;;;;56.90;30.88;;;;;;;0.23;71.83;101944.48;1752040;81;25600;-53
2021/10/10 05:20:33;;;;;;;54.53;29.55;;;;;;;0.23;71.84;101948.47;1752111;81;25471;-55
2021/10/10 05:23:00;;;;;;;57.80;30.50;;;;;;;0.24;71.87;101942.11;1752071;81;27303;-54
2021/10/10 05:25:26;;;;;;;61.28;31.87;;;;;;;0.25;72.04;101941.11;1751974;81;25460;-53
2021/10/10 05:27:53;;;;;;;62.70;31.12;;;;;;;0.27;72.12;101941.72;1752088;81;25619;-51
2021/10/10 05:30:20;;;;;;;61.65;31.65;;;;;;;0.29;72.07;101945.00;1752052;81;25617;-55
2021/10/10 05:32:46;;;;;;;55.17;30.62;;;;;;;0.31;72.27;101944.31;1752057;81;25620;-52
2021/10/10 05:35:13;;;;;;;62.90;31.82;;;;;;;0.33;72.40;101944.92;1752156;81;27404;-52
2021/10/10 05:37:41;;;;;;;61.02;32.90;;;;;;;0.36;72.35;101947.19;1751997;81;25672;-53
2021/10/10 05:40:09;;;;;;;55.33;31.27;;;;;;;0.39;72.47;101945.44;1752044;81;25749;-52
2021/10/10 05:42:38;;;;;;;51.10;28.42;;;;;;;0.39;72.45;101941.44;1752293;81;25623;-54
2021/10/10 05:45:06;;;;;;;42.03;21.95;;;;;;;0.45;72.49;101947.31;1752346;81;25716;-53
2021/10/10 05:47:33;;;;;;;55.23;30.77;;;;;;;0.47;72.70;101938.61;1752091;81;27327;-52
2021/10/10 05:50:00;;;;;;;52.55;28.42;;;;;;;0.51;72.71;101934.53;1751865;81;27211;-54
2021/10/10 05:52:27;;;;;;;53.38;29.05;;;;;;;0.53;72.93;101928.48;1752047;81;25583;-51
2021/10/10 05:54:54;;;;;;;57.55;32.40;;;;;;;0.58;72.96;101935.88;1752083;81;25728;-51
2021/10/10 05:57:25;;;;;;;54.90;30.40;;;;;;;0.64;73.18;101934.25;1752106;81;25624;-54
2021/10/10 05:59:55;;;;;;;61.68;31.45;;;;;;;0.71;73.47;101937.73;1751758;81;27333;-51
2021/10/10 06:02:21;;;;;;;49.80;28.20;;;;;;;0.79;73.76;101940.21;1751637;81;25484;-52
2021/10/10 06:04:48;;;;;;;55.73;29.70;;;;;;;0.87;73.68;101940.02;1752205;81;25686;-53
2021/10/10 06:07:15;;;;;;;49.83;28.75;;;;;;;0.92;73.71;101940.75;1752024;81;25627;-52
2021/10/10 06:09:41;;;;;;;55.92;30.10;;;;;;;0.99;73.79;101934.91;1752034;81;25668;-53
2021/10/10 06:12:08;;;;;;;51.00;30.48;;;;;;;1.08;73.88;101936.84;1752031;81;27327;-50
2021/10/10 06:14:34;;;;;;;48.85;28.23;;;;;;;1.17;74.11;101935.60;1751912;81;27125;-53
2021/10/10 06:17:01;;;;;;;49.75;29.98;;;;;;;1.28;74.57;101943.52;1752043;81;25636;-50
2021/10/10 06:19:30;;;;;;;51.75;30.08;;;;;;;1.43;75.71;101938.78;1752005;81;26396;-51
2021/10/10 06:21:57;;;;;;;54.65;29.55;;;;;;;1.67;76.88;101936.48;1752206;81;25505;-53
2021/10/10 06:24:24;;;;;;;55.55;30.52;;;;;;;1.99;78.03;101942.75;1752034;81;28079;-53
2021/10/10 06:26:51;;;;;;;57.13;32.23;;;;;;;2.38;79.07;101936.92;1751933;81;25510;-50
2021/10/10 06:29:20;;;;;;;57.58;32.10;;;;;;;2.77;79.25;101936.35;1752003;81;25499;-54
2021/10/10 06:31:51;;;;;;;54.65;31.65;;;;;;;3.16;79.57;101933.59;1752202;81;34668;-53
2021/10/10 06:34:17;;;;;;;54.42;31.25;;;;;;;3.59;78.28;101939.98;1752159;81;25439;-55
2021/10/10 06:36:44;;;;;;;55.52;30.92;;;;;;;4.02;78.85;101943.11;1752043;81;28139;-55
2021/10/10 06:39:11;;;;;;;50.60;30.12;;;;;;;4.45;78.10;101942.97;1751908;81;25707;-53
2021/10/10 06:44:52;;;;;;;51.02;29.52;;;;;;;5.31;76.98;101937.83;1752000;81;25515;-57
2021/10/10 06:47:22;;;;;;;50.40;29.00;;;;;;;5.95;76.07;101940.03;1752070;81;25187;-52
2021/10/10 06:49:48;;;;;;;49.93;30.52;;;;;;;6.41;75.37;101937.47;1748953;81;27355;-56
2021/10/10 06:52:15;;;;;;;54.45;29.63;;;;;;;6.90;74.45;101938.33;1741897;82;25513;-55
2021/10/10 06:54:42;;;;;;;57.20;30.80;;;;;;;7.37;73.83;101942.53;1741925;82;25719;-53
2021/10/10 06:57:09;;;;;;;48.20;27.45;;;;;;;7.80;72.73;101940.45;1741914;82;25623;-52
2021/10/10 06:59:36;;;;;;;48.50;29.65;;;;;;;8.27;71.74;101941.00;1741958;82;25725;-55
2021/10/10 07:02:05;;;;;;;50.12;30.55;;;;;;;8.71;71.05;101937.69;1741900;82;27314;-53
2021/10/10 07:04:31;;;;;;;46.05;29.67;;;;;;;9.19;70.33;101935.10;1741939;82;25619;-55
2021/10/10 07:06:58;;;;;;;46.28;27.85;;;;;;;9.66;68.96;101932.16;1742005;82;25474;-54
2021/10/10 07:09:24;;;;;;;47.35;27.07;;;;;;;10.12;67.91;101930.19;1741844;82;25664;-56
2021/10/10 07:11:51;;;;;;;47.08;28.12;;;;;;;10.56;66.87;101928.42;1741887;82;25590;-53
2021/10/10 07:14:17;;;;;;;45.75;27.82;;;;;;;11.01;66.04;101934.38;1741913;82;27963;-55
2021/10/10 07:16:44;;;;;;;48.87;29.92;;;;;;;11.49;65.13;101930.52;1741833;82;25762;-53
2021/10/10 07:19:11;;;;;;;57.17;36.42;;;;;;;11.95;63.80;101926.31;1741914;81;25638;-55
2021/10/10 07:21:55;;;;;;;37.28;23.22;;;;;;;12.61;62.64;101932.45;1741838;82;25599;-55
2021/10/10 07:26:57;;;;;;;32.25;20.12;;;;;;;14.40;58.78;101929.72;1741881;82;27336;-54
2021/10/10 07:29:23;;;;;;;32.03;19.42;;;;;;;15.37;56.15;101932.77;1741771;82;25530;-54
2021/10/10 07:31:50;;;;;;;31.85;19.17;;;;;;;16.04;54.16;101931.48;1741826;82;25678;-53
2021/10/10 07:34:16;;;;;;;37.28;21.97;;;;;;;16.70;52.76;101932.42;1741945;82;26522;-53
2021/10/10 07:36:43;;;;;;;28.30;18.90;;;;;;;17.14;51.59;101934.33;1741880;82;25606;-54
2021/10/10 07:39:10;;;;;;;28.50;20.37;;;;;;;17.42;50.80;101934.16;1741834;82;27326;-54
2021/10/10 07:41:40;;;;;;;32.53;21.95;;;;;;;17.65;50.25;101934.86;1741831;82;25446;-54
2021/10/10 07:44:07;;;;;;;33.10;20.93;;;;;;;17.85;49.09;101930.73;1742018;82;25620;-54
2021/10/10 07:46:39;;;;;;;41.75;28.55;;;;;;;18.11;48.65;101923.16;1741964;82;25584;-55
2021/10/10 07:49:08;;;;;;;24.75;16.87;;;;;;;18.39;47.70;101926.41;1742111;82;25686;-55
2021/10/10 07:51:36;;;;;;;24.82;16.20;;;;;;;18.45;45.81;101929.20;1742268;81;27296;-55
2021/10/10 07:54:04;;;;;;;26.85;17.60;;;;;;;18.60;45.35;101927.12;1742062;82;25674;-56
2021/10/10 07:56:31;;;;;;;22.85;15.05;;;;;;;18.79;44.60;101930.30;1742047;82;25704;-56
2021/10/10 07:58:57;;;;;;;21.95;14.33;;;;;;;18.97;43.98;101931.12;1742021;82;26222;-55
2021/10/10 08:01:24;;;;;;;23.92;13.93;;;;;;;19.18;43.38;101939.44;1742075;82;25664;-56
2021/10/10 08:03:50;;;;;;;22.90;13.85;;;;;;;19.38;42.67;101929.69;1742045;82;27327;-55
2021/10/10 08:06:17;;;;;;;21.33;13.88;;;;;;;19.59;42.15;101933.06;1741970;82;25450;-56
2021/10/10 08:08:44;;;;;;;22.48;14.93;;;;;;;19.80;41.48;101934.50;1742094;82;25463;-55
2021/10/10 08:11:10;;;;;;;19.75;13.48;;;;;;;19.93;40.37;101927.97;1741972;82;25664;-55
2021/10/10 08:13:37;;;;;;;24.10;13.95;;;;;;;20.16;40.47;101924.92;1742031;82;25454;-56
2021/10/10 08:16:04;;;;;;;23.95;13.98;;;;;;;20.47;40.15;101923.12;1742046;81;27692;-58
2021/10/10 08:18:31;;;;;;;22.22;14.07;;;;;;;20.78;39.53;101931.50;1741931;81;25523;-59
2021/10/10 08:20:57;;;;;;;22.05;13.28;;;;;;;20.94;38.74;101923.98;1742026;82;25683;-59
2021/10/10 08:23:24;;;;;;;18.57;11.50;;;;;;;21.22;37.98;101920.83;1741993;82;25662;-60
2021/10/10 08:25:51;;;;;;;15.32;11.25;;;;;;;21.26;36.58;101925.86;1742086;82;25709;-60
2021/10/10 08:28:18;;;;;;;15.45;11.00;;;;;;;21.33;36.57;101923.92;1742033;82;27342;-57
2021/10/10 08:30:45;;;;;;;15.70;10.18;;;;;;;21.60;36.31;101918.91;1741968;81;25720;-57
2021/10/10 08:33:14;;;;;;;14.35;10.08;;;;;;;21.83;35.99;101921.42;1742071;82;25597;-55
2021/10/10 08:35:43;;;;;;;17.10;9.80;;;;;;;22.07;34.99;101919.77;1741985;82;25992;-58
2021/10/10 08:38:10;;;;;;;16.62;9.53;;;;;;;22.33;34.36;101913.06;1742172;82;25632;-58
2021/10/10 08:40:38;;;;;;;15.30;8.53;;;;;;;22.58;33.66;101916.52;1741995;82;27334;-58
2021/10/10 08:43:06;;;;;;;14.50;10.63;;;;;;;22.69;32.64;101913.46;1706434;82;25696;-58
2021/10/10 08:45:34;;;;;;;14.53;9.00;;;;;;;22.83;32.67;101910.31;1742157;81;25633;-58
2021/10/10 08:48:00;;;;;;;17.45;9.68;;;;;;;23.07;32.10;101903.85;1742001;81;25692;-59
2021/10/10 08:50:30;;;;;;;17.65;9.20;;;;;;;23.20;30.76;101903.76;1744766;81;25669;-59
2021/10/10 08:53:01;;;;;;;;;;;;;;;23.31;31.37;101905.63;1754668;81;27289;-58
2021/10/10 08:55:31;;;;;;;16.23;9.38;;;;;;;23.72;31.00;101901.80;1752062;81;25458;-59
2021/10/10 08:58:00;;;;;;;20.32;12.75;;;;;;;23.96;30.75;101897.45;1752051;81;25692;-58
2021/10/10 09:02:55;;;;;;;14.65;9.35;;;;;;;24.50;29.83;101893.58;1752324;81;25642;-58
2021/10/10 09:05:26;;;;;;;16.75;9.70;;;;;;;24.69;29.70;101892.77;1752077;81;27189;-57
2021/10/10 09:07:53;;;;;;;11.10;7.42;;;;;;;24.83;28.25;101886.72;1724191;81;25810;-58
2021/10/10 09:10:29;;;;;;;9.60;6.78;;;;;;;24.87;28.04;101886.97;1726254;83;25483;-58
2021/10/10 09:13:14;;;;;;;10.90;6.55;;;;;;;25.01;27.33;101883.64;1728298;81;25708;-59
2021/10/10 09:15:44;;;;;;;11.22;6.25;;;;;;;24.81;26.67;101894.00;1752139;81;25543;-57
2021/10/10 09:18:11;;;;;;;9.45;6.08;;;;;;;24.72;25.90;101880.41;1727766;81;27344;-58
2021/10/10 09:20:43;;;;;;;9.00;6.45;;;;;;;24.27;25.74;101889.39;1752006;81;25561;-59
2021/10/10 09:23:25;;;;;;;8.35;5.20;;;;;;;24.01;25.91;101888.08;1728453;81;25735;-60
2021/10/10 09:26:01;;;;;;;8.18;5.65;;;;;;;23.72;25.51;101879.70;1724004;83;25623;-60
2021/10/10 09:28:32;;;;;;;11.00;5.58;;;;;;;23.35;25.20;101882.83;1723626;83;25679;-60
2021/10/10 09:31:05;;;;;;;9.85;6.10;;;;;;;23.06;25.22;101882.13;1705319;83;27910;-60
2021/10/10 09:33:54;;;;;;;6.92;4.67;;;;;;;22.81;26.04;101868.46;1723883;83;25659;-60
2021/10/10 09:36:26;;;;;;;7.50;5.10;;;;;;;22.95;25.83;101874.91;1723821;83;25765;-60
2021/10/10 09:39:14;;;;;;;8.95;5.00;;;;;;;22.79;25.74;101875.50;1704485;83;25609;-60
2021/10/10 09:41:54;;;;;;;10.55;5.40;;;;;;;22.85;26.29;101874.06;1724022;83;25519;-61
2021/10/10 09:44:27;;;;;;;7.20;5.45;;;;;;;23.33;26.58;101874.08;1703318;83;27351;-58
2021/10/10 09:46:53;;;;;;;8.90;5.25;;;;;;;23.84;26.34;101872.13;1723875;83;25716;-60
2021/10/10 09:49:27;;;;;;;7.33;4.47;;;;;;;24.15;25.59;101869.61;1704576;83;25566;-61
2021/10/10 09:51:57;;;;;;;14.43;7.78;;;;;;;24.28;25.32;101873.00;1713656;82;25616;-61
2021/10/10 09:54:23;;;;;;;9.50;4.62;;;;;;;24.43;24.59;101874.32;1716773;83;25775;-61
2021/10/10 09:57:06;;;;;;;6.30;4.45;;;;;;;24.34;24.70;101868.80;1716751;83;26804;-61
2021/10/10 09:59:34;;;;;;;7.87;4.25;;;;;;;24.50;24.27;101865.92;1683938;84;25655;-61
2021/10/10 10:02:01;;;;;;;9.63;4.10;;;;;;;24.46;23.49;101867.23;1707773;84;25549;-61
2021/10/10 10:04:43;;;;;;;5.60;4.00;;;;;;;24.32;22.06;101869.75;1707762;84;25799;-61
2021/10/10 10:07:12;;;;;;;7.08;4.35;;;;;;;23.96;22.92;101866.27;1707861;84;25633;-61
2021/10/10 10:09:39;;;;;;;;;;;;;;;23.57;22.77;101867.56;1710277;84;27967;-59
2021/10/10 10:12:08;;;;;;;6.97;3.83;;;;;;;23.13;22.67;101861.02;1707743;84;25537;-59
2021/10/10 10:14:36;;;;;;;7.05;4.17;;;;;;;22.75;22.56;101861.03;1707758;84;25545;-59
2021/10/10 10:17:05;;;;;;;6.45;4.08;;;;;;;22.43;22.48;101860.77;1707736;84;25633;-59
2021/10/10 10:19:34;;;;;;;5.90;4.00;;;;;;;22.10;23.42;101852.12;1707955;84;25691;-59
2021/10/10 10:22:01;;;;;;;;;;;;;;;22.36;24.28;101844.25;1710340;84;27656;-60
2021/10/10 10:24:31;;;;;;;6.55;4.12;;;;;;;22.70;24.25;101848.09;1707711;84;25896;-59
2021/10/10 10:26:58;;;;;;;8.90;3.80;;;;;;;23.01;23.92;101846.50;1707790;84;25665;-59
2021/10/10 10:29:30;;;;;;;7.78;4.22;;;;;;;23.22;23.23;101847.03;1707835;84;26376;-59
2021/10/10 10:32:00;;;;;;;6.35;4.12;;;;;;;23.57;23.64;101844.88;1707824;84;25644;-58
2021/10/10 10:34:33;;;;;;;8.53;3.60;;;;;;;24.11;23.42;101836.38;1707751;84;27374;-58
2021/10/10 10:37:04;;;;;;;7.15;3.65;;;;;;;24.38;22.68;101850.30;1731532;82;25899;-58
2021/10/10 10:39:47;;;;;;;7.03;3.70;;;;;;;24.12;21.99;101847.63;1736639;82;25609;-59
2021/10/10 10:42:28;;;;;;;5.45;3.25;;;;;;;23.71;21.90;101837.48;1736632;82;26208;-58
2021/10/10 10:44:55;;;;;;;4.25;3.08;;;;;;;23.57;21.88;101842.70;1689514;83;25551;-58
2021/10/10 10:47:25;;;;;;;6.37;3.58;;;;;;;23.20;21.93;101840.28;1713881;83;28131;-57
2021/10/10 10:49:58;;;;;;;6.25;4.25;;;;;;;23.13;21.99;101833.42;1690379;83;25562;-58
2021/10/10 10:52:41;;;;;;;6.42;4.03;;;;;;;23.04;21.87;101830.03;1719246;82;25703;-58
2021/10/10 10:55:34;;;;;;;7.35;3.62;;;;;;;22.99;22.45;101829.51;1723595;83;25724;-58
2021/10/10 10:58:13;;;;;;;6.40;3.70;;;;;;;23.23;22.44;101826.56;1724774;83;25716;-58
2021/10/10 11:00:41;;;;;;;;;;;;;;;22.92;21.97;101819.09;1727281;83;28102;-58
2021/10/10 11:03:26;;;;;;;8.13;3.95;;;;;;;22.73;22.71;101830.26;1724769;83;25837;-58
2021/10/10 11:06:13;;;;;;;4.87;3.90;;;;;;;22.85;22.68;101827.17;1724817;83;25473;-58
2021/10/10 11:08:43;;;;;;;24.98;6.95;;;;;;;22.88;22.92;101828.67;1724727;81;26412;-60
2021/10/10 11:11:20;;;;;;;12.53;6.92;;;;;;;23.00;22.71;101837.40;1724673;83;25690;-57
2021/10/10 11:13:58;;;;;;;9.85;4.97;;;;;;;23.20;23.13;101820.37;1724719;83;27249;-58
2021/10/10 11:16:32;;;;;;;7.85;5.22;;;;;;;23.48;22.87;101821.61;1724723;83;34789;-61
2021/10/10 11:19:11;;;;;;;6.20;4.40;;;;;;;23.79;22.51;101821.88;1724719;83;25713;-59
2021/10/10 11:21:41;;;;;;;7.60;4.17;;;;;;;23.37;21.63;101819.18;1734292;81;26026;-59
2021/10/10 11:24:19;;;;;;;4.75;3.85;;;;;;;23.25;22.51;101806.88;1760658;81;25462;-63
2021/10/10 11:26:49;;;;;;;7.47;3.60;;;;;;;23.17;21.94;101807.28;1754626;81;27343;-60
2021/10/10 11:29:19;;;;;;;4.67;4.00;;;;;;;22.95;22.28;101807.32;1750013;82;25756;-60
2021/10/10 11:31:49;;;;;;;5.08;3.27;;;;;;;22.81;22.31;101807.78;1750127;82;25482;-59
2021/10/10 11:34:24;;;;;;;4.30;3.87;;;;;;;22.89;22.74;101798.52;1685005;84;26195;-59
2021/10/10 11:36:58;;;;;;;4.45;3.77;;;;;;;23.25;22.60;101795.84;1713648;83;25224;-60